sensor_id;sensor_type;location;lat;lon;timestamp;pressure;altitude;pressure_sealevel;temperature;humidity
38033;BME280;23841;48.524;1.342;2023-12-28T00:01:25;99153.00;;;11.47;63.72
38033;BME280;23841;48.524;1.342;2023-12-28T00:03:50;99158.34;;;11.47;63.62
38033;BME280;23841;48.524;1.342;2023-12-28T00:06:16;99154.72;;;11.48;63.55
38033;BME280;23841;48.524;1.342;2023-12-28T00:08:41;99157.38;;;11.50;63.52
38033;BME280;23841;48.524;1.342;2023-12-28T00:11:07;99152.91;;;11.50;63.41
38033;BME280;23841;48.524;1.342;2023-12-28T00:13:33;99156.44;;;11.51;63.36
38033;BME280;23841;48.524;1.342;2023-12-28T00:15:58;99159.06;;;11.52;63.47
38033;BME280;23841;48.524;1.342;2023-12-28T00:18:24;99153.78;;;11.51;63.38
38033;BME280;23841;48.524;1.342;2023-12-28T00:20:50;99157.34;;;11.51;63.38
38033;BME280;23841;48.524;1.342;2023-12-28T00:23:15;99151.06;;;11.52;63.33
38033;BME280;23841;48.524;1.342;2023-12-28T00:25:41;99163.47;;;11.53;63.25
38033;BME280;23841;48.524;1.342;2023-12-28T00:28:07;99157.25;;;11.54;63.23
38033;BME280;23841;48.524;1.342;2023-12-28T00:30:33;99158.16;;;11.53;63.20
38033;BME280;23841;48.524;1.342;2023-12-28T00:32:58;99155.50;;;11.53;63.31
38033;BME280;23841;48.524;1.342;2023-12-28T00:35:23;99159.91;;;11.54;63.22
38033;BME280;23841;48.524;1.342;2023-12-28T00:37:49;99151.06;;;11.52;63.25
38033;BME280;23841;48.524;1.342;2023-12-28T00:40:14;99157.25;;;11.54;63.22
38033;BME280;23841;48.524;1.342;2023-12-28T00:42:40;99156.38;;;11.54;63.25
38033;BME280;23841;48.524;1.342;2023-12-28T00:45:09;99148.34;;;11.55;63.12
38033;BME280;23841;48.524;1.342;2023-12-28T00:47:35;99152.78;;;11.55;63.17
38033;BME280;23841;48.524;1.342;2023-12-28T00:50:00;99155.41;;;11.56;63.21
38033;BME280;23841;48.524;1.342;2023-12-28T00:52:25;99148.34;;;11.55;63.22
38033;BME280;23841;48.524;1.342;2023-12-28T00:54:51;99143.03;;;11.55;63.27
38033;BME280;23841;48.524;1.342;2023-12-28T00:57:16;99149.22;;;11.56;63.30
38033;BME280;23841;48.524;1.342;2023-12-28T00:59:42;99138.56;;;11.56;63.23
38033;BME280;23841;48.524;1.342;2023-12-28T01:02:09;99146.50;;;11.57;63.36
38033;BME280;23841;48.524;1.342;2023-12-28T01:04:34;99143.91;;;11.56;63.24
38033;BME280;23841;48.524;1.342;2023-12-28T01:06:59;99153.69;;;11.55;63.26
38033;BME280;23841;48.524;1.342;2023-12-28T01:09:27;99160.69;;;11.58;63.35
38033;BME280;23841;48.524;1.342;2023-12-28T01:11:53;99161.59;;;11.57;63.42
38033;BME280;23841;48.524;1.342;2023-12-28T01:14:18;99164.22;;;11.58;63.38
38033;BME280;23841;48.524;1.342;2023-12-28T01:16:44;99162.47;;;11.57;63.35
38033;BME280;23841;48.524;1.342;2023-12-28T01:19:09;99171.34;;;11.58;63.34
38033;BME280;23841;48.524;1.342;2023-12-28T01:21:35;99171.28;;;11.59;63.35
38033;BME280;23841;48.524;1.342;2023-12-28T01:24:01;99163.31;;;11.59;63.37
38033;BME280;23841;48.524;1.342;2023-12-28T01:26:27;99172.16;;;11.60;63.46
38033;BME280;23841;48.524;1.342;2023-12-28T01:28:52;99178.34;;;11.60;63.33
38033;BME280;23841;48.524;1.342;2023-12-28T01:31:18;99168.63;;;11.59;63.30
38033;BME280;23841;48.524;1.342;2023-12-28T01:33:43;99183.66;;;11.60;63.43
38033;BME280;23841;48.524;1.342;2023-12-28T01:36:19;99182.75;;;11.61;63.41
38033;BME280;23841;48.524;1.342;2023-12-28T01:38:45;99165.97;;;11.59;63.46
38033;BME280;23841;48.524;1.342;2023-12-28T01:41:11;99176.56;;;11.61;63.50
38033;BME280;23841;48.524;1.342;2023-12-28T01:43:38;99177.47;;;11.60;63.65
38033;BME280;23841;48.524;1.342;2023-12-28T01:46:09;99172.16;;;11.60;63.58
38033;BME280;23841;48.524;1.342;2023-12-28T01:48:35;99175.69;;;11.60;63.65
38033;BME280;23841;48.524;1.342;2023-12-28T01:51:02;99178.34;;;11.60;63.68
38033;BME280;23841;48.524;1.342;2023-12-28T01:53:28;99173.91;;;11.61;63.60
38033;BME280;23841;48.524;1.342;2023-12-28T01:55:54;99180.94;;;11.62;63.78
38033;BME280;23841;48.524;1.342;2023-12-28T01:58:20;99187.16;;;11.63;63.52
38033;BME280;23841;48.524;1.342;2023-12-28T02:00:46;99183.63;;;11.62;63.60
38033;BME280;23841;48.524;1.342;2023-12-28T02:03:12;99190.69;;;11.63;63.55
38033;BME280;23841;48.524;1.342;2023-12-28T02:05:38;99184.50;;;11.63;63.58
38033;BME280;23841;48.524;1.342;2023-12-28T02:08:04;99189.81;;;11.63;63.58
38033;BME280;23841;48.524;1.342;2023-12-28T02:10:30;99192.50;;;11.63;63.70
38033;BME280;23841;48.524;1.342;2023-12-28T02:12:55;99192.50;;;11.63;63.64
38033;BME280;23841;48.524;1.342;2023-12-28T02:15:21;99195.16;;;11.63;63.70
38033;BME280;23841;48.524;1.342;2023-12-28T02:17:49;99204.88;;;11.64;63.65
38033;BME280;23841;48.524;1.342;2023-12-28T02:20:20;99202.22;;;11.64;63.68
38033;BME280;23841;48.524;1.342;2023-12-28T02:22:46;99211.94;;;11.65;63.47
38033;BME280;23841;48.524;1.342;2023-12-28T02:25:12;99211.94;;;11.65;63.75
38033;BME280;23841;48.524;1.342;2023-12-28T02:27:42;99216.34;;;11.66;63.44
38033;BME280;23841;48.524;1.342;2023-12-28T02:30:09;99207.50;;;11.65;63.81
38033;BME280;23841;48.524;1.342;2023-12-28T02:38:11;99227.91;;;11.65;63.88
38033;BME280;23841;48.524;1.342;2023-12-28T02:40:40;99224.41;;;11.63;63.98
38033;BME280;23841;48.524;1.342;2023-12-28T02:43:06;99231.50;;;11.64;63.90
38033;BME280;23841;48.524;1.342;2023-12-28T02:45:32;99231.50;;;11.64;64.12
38033;BME280;23841;48.524;1.342;2023-12-28T02:47:57;99222.56;;;11.65;64.07
38033;BME280;23841;48.524;1.342;2023-12-28T02:50:23;99222.56;;;11.65;64.06
38033;BME280;23841;48.524;1.342;2023-12-28T02:52:48;99222.56;;;11.65;64.17
38033;BME280;23841;48.524;1.342;2023-12-28T02:55:14;99214.59;;;11.65;64.22
38033;BME280;23841;48.524;1.342;2023-12-28T02:57:40;99221.63;;;11.67;64.30
38033;BME280;23841;48.524;1.342;2023-12-28T03:00:06;99220.75;;;11.67;64.16
38033;BME280;23841;48.524;1.342;2023-12-28T03:02:34;99222.50;;;11.68;64.14
38033;BME280;23841;48.524;1.342;2023-12-28T03:04:59;99212.78;;;11.67;64.11
38033;BME280;23841;48.524;1.342;2023-12-28T03:07:25;99211.94;;;11.65;64.23
38033;BME280;23841;48.524;1.342;2023-12-28T03:09:50;99220.75;;;11.67;64.22
38033;BME280;23841;48.524;1.342;2023-12-28T03:12:15;99221.63;;;11.67;64.25
38033;BME280;23841;48.524;1.342;2023-12-28T03:14:41;99222.50;;;11.68;64.21
38033;BME280;23841;48.524;1.342;2023-12-28T03:17:07;99220.75;;;11.67;64.14
38033;BME280;23841;48.524;1.342;2023-12-28T03:19:32;99219.84;;;11.68;64.22
38033;BME280;23841;48.524;1.342;2023-12-28T03:21:57;99225.13;;;11.69;64.07
38033;BME280;23841;48.524;1.342;2023-12-28T03:24:23;99219.81;;;11.69;64.14
38033;BME280;23841;48.524;1.342;2023-12-28T03:26:48;99218.91;;;11.69;64.17
38033;BME280;23841;48.524;1.342;2023-12-28T03:29:13;99215.34;;;11.70;64.15
38033;BME280;23841;48.524;1.342;2023-12-28T03:31:39;99214.53;;;11.68;64.19
38033;BME280;23841;48.524;1.342;2023-12-28T03:34:06;99214.53;;;11.68;64.22
38033;BME280;23841;48.524;1.342;2023-12-28T03:36:31;99209.16;;;11.69;64.10
38033;BME280;23841;48.524;1.342;2023-12-28T03:38:56;99218.00;;;11.70;64.09
38033;BME280;23841;48.524;1.342;2023-12-28T03:41:22;99214.50;;;11.69;64.20
38033;BME280;23841;48.524;1.342;2023-12-28T03:43:47;99210.03;;;11.70;64.11
38033;BME280;23841;48.524;1.342;2023-12-28T03:46:13;99210.88;;;11.70;64.09
38033;BME280;23841;48.524;1.342;2023-12-28T03:48:39;99212.72;;;11.68;64.17
38033;BME280;23841;48.524;1.342;2023-12-28T03:51:04;99220.66;;;11.70;64.09
38033;BME280;23841;48.524;1.342;2023-12-28T03:53:30;99221.53;;;11.70;64.18
38033;BME280;23841;48.524;1.342;2023-12-28T03:55:59;99217.09;;;11.71;64.12
38033;BME280;23841;48.524;1.342;2023-12-28T03:58:24;99222.41;;;11.71;64.00
38033;BME280;23841;48.524;1.342;2023-12-28T04:00:50;99222.41;;;11.71;64.10
38033;BME280;23841;48.524;1.342;2023-12-28T04:03:15;99224.19;;;11.70;64.18
38033;BME280;23841;48.524;1.342;2023-12-28T04:05:42;99217.97;;;11.71;64.12
38033;BME280;23841;48.524;1.342;2023-12-28T04:08:08;99212.69;;;11.70;64.18
38033;BME280;23841;48.524;1.342;2023-12-28T04:10:33;99221.53;;;11.70;64.18
38033;BME280;23841;48.524;1.342;2023-12-28T04:12:59;99228.59;;;11.71;64.22
38033;BME280;23841;48.524;1.342;2023-12-28T04:15:26;99225.09;;;11.71;64.12
38033;BME280;23841;48.524;1.342;2023-12-28T04:17:51;99223.22;;;11.73;64.19
38033;BME280;23841;48.524;1.342;2023-12-28T04:20:17;99221.53;;;11.70;64.03
38033;BME280;23841;48.524;1.342;2023-12-28T04:22:43;99217.97;;;11.71;64.15
38033;BME280;23841;48.524;1.342;2023-12-28T04:25:09;99211.78;;;11.71;64.27
38033;BME280;23841;48.524;1.342;2023-12-28T04:27:35;99210.03;;;11.70;64.34
38033;BME280;23841;48.524;1.342;2023-12-28T04:30:01;99208.22;;;11.72;64.37
38033;BME280;23841;48.524;1.342;2023-12-28T04:32:26;99207.31;;;11.71;64.24
38033;BME280;23841;48.524;1.342;2023-12-28T04:34:53;99205.53;;;11.72;64.27
38033;BME280;23841;48.524;1.342;2023-12-28T04:37:19;99188.69;;;11.71;64.31
38033;BME280;23841;48.524;1.342;2023-12-28T04:39:45;99198.47;;;11.71;64.28
38033;BME280;23841;48.524;1.342;2023-12-28T04:42:11;99203.75;;;11.72;64.32
38033;BME280;23841;48.524;1.342;2023-12-28T04:44:39;99201.09;;;11.72;64.29
38033;BME280;23841;48.524;1.342;2023-12-28T04:47:05;99188.63;;;11.73;64.24
38033;BME280;23841;48.524;1.342;2023-12-28T04:49:30;99186.91;;;11.72;64.41
38033;BME280;23841;48.524;1.342;2023-12-28T04:51:56;99197.56;;;11.72;64.41
38033;BME280;23841;48.524;1.342;2023-12-28T04:54:22;99202.88;;;11.72;64.39
38033;BME280;23841;48.524;1.342;2023-12-28T04:56:47;99205.50;;;11.73;64.32
38033;BME280;23841;48.524;1.342;2023-12-28T04:59:13;99192.25;;;11.72;64.37
38033;BME280;23841;48.524;1.342;2023-12-28T05:01:44;99200.19;;;11.73;64.21
38033;BME280;23841;48.524;1.342;2023-12-28T05:04:10;99208.16;;;11.73;64.34
38033;BME280;23841;48.524;1.342;2023-12-28T05:06:37;99209.94;;;11.73;64.44
38033;BME280;23841;48.524;1.342;2023-12-28T05:09:03;99209.06;;;11.72;64.34
38033;BME280;23841;48.524;1.342;2023-12-28T05:11:29;99206.38;;;11.74;64.13
38033;BME280;23841;48.524;1.342;2023-12-28T05:13:54;99209.03;;;11.74;64.36
38033;BME280;23841;48.524;1.342;2023-12-28T05:16:20;99211.69;;;11.74;64.29
38033;BME280;23841;48.524;1.342;2023-12-28T05:18:46;99205.47;;;11.75;64.44
38033;BME280;23841;48.524;1.342;2023-12-28T05:21:12;99214.34;;;11.74;64.34
38033;BME280;23841;48.524;1.342;2023-12-28T05:23:38;99204.59;;;11.73;64.38
38033;BME280;23841;48.524;1.342;2023-12-28T05:26:03;99208.22;;;11.72;64.47
38033;BME280;23841;48.524;1.342;2023-12-28T05:28:29;99209.06;;;11.72;64.57
38033;BME280;23841;48.524;1.342;2023-12-28T05:30:54;99203.75;;;11.72;64.63
38033;BME280;23841;48.524;1.342;2023-12-28T05:33:20;99200.22;;;11.72;64.69
38033;BME280;23841;48.524;1.342;2023-12-28T05:35:45;99206.47;;;11.71;64.63
38033;BME280;23841;48.524;1.342;2023-12-28T05:38:10;99206.47;;;11.71;64.74
38033;BME280;23841;48.524;1.342;2023-12-28T05:40:36;99210.88;;;11.72;64.73
38033;BME280;23841;48.524;1.342;2023-12-28T05:43:01;99221.47;;;11.73;64.79
38033;BME280;23841;48.524;1.342;2023-12-28T05:45:26;99228.56;;;11.73;64.84
38033;BME280;23841;48.524;1.342;2023-12-28T05:47:52;99228.56;;;11.73;64.84
38033;BME280;23841;48.524;1.342;2023-12-28T05:50:17;99225.03;;;11.72;64.86
38033;BME280;23841;48.524;1.342;2023-12-28T05:52:43;99227.66;;;11.74;64.95
38033;BME280;23841;48.524;1.342;2023-12-28T05:55:08;99233.84;;;11.74;64.88
38033;BME280;23841;48.524;1.342;2023-12-28T05:57:34;99219.72;;;11.72;64.92
38033;BME280;23841;48.524;1.342;2023-12-28T05:59:59;99231.22;;;11.73;64.90
38033;BME280;23841;48.524;1.342;2023-12-28T06:02:24;99226.78;;;11.73;65.02
38033;BME280;23841;48.524;1.342;2023-12-28T06:04:50;99231.25;;;11.71;65.09
38033;BME280;23841;48.524;1.342;2023-12-28T06:07:15;99234.81;;;11.72;65.14
38033;BME280;23841;48.524;1.342;2023-12-28T06:09:41;99236.53;;;11.73;65.17
38033;BME280;23841;48.524;1.342;2023-12-28T06:12:06;99243.63;;;11.74;65.27
38033;BME280;23841;48.524;1.342;2023-12-28T06:14:32;99239.19;;;11.73;65.10
38033;BME280;23841;48.524;1.342;2023-12-28T06:16:57;99245.38;;;11.75;65.16
38033;BME280;23841;48.524;1.342;2023-12-28T06:19:23;99237.44;;;11.73;65.17
38033;BME280;23841;48.524;1.342;2023-12-28T06:21:49;99240.97;;;11.74;65.12
38033;BME280;23841;48.524;1.342;2023-12-28T06:24:14;99247.13;;;11.74;65.29
38033;BME280;23841;48.524;1.342;2023-12-28T06:26:41;99240.91;;;11.75;65.21
38033;BME280;23841;48.524;1.342;2023-12-28T06:29:07;99239.16;;;11.74;65.20
38033;BME280;23841;48.524;1.342;2023-12-28T06:31:32;99238.28;;;11.74;65.16
38033;BME280;23841;48.524;1.342;2023-12-28T06:34:04;99248.94;;;11.74;65.35
38033;BME280;23841;48.524;1.342;2023-12-28T06:36:29;99254.16;;;11.77;65.25
38033;BME280;23841;48.524;1.342;2023-12-28T06:38:55;99248.84;;;11.77;65.17
38033;BME280;23841;48.524;1.342;2023-12-28T06:41:21;99253.31;;;11.76;65.04
38033;BME280;23841;48.524;1.342;2023-12-28T06:43:46;99238.19;;;11.77;65.06
38033;BME280;23841;48.524;1.342;2023-12-28T06:46:12;99237.28;;;11.78;64.96
38033;BME280;23841;48.524;1.342;2023-12-28T06:48:37;99239.97;;;11.78;64.95
38033;BME280;23841;48.524;1.342;2023-12-28T06:51:08;99238.19;;;11.77;65.07
38033;BME280;23841;48.524;1.342;2023-12-28T06:53:33;99234.69;;;11.76;65.06
38033;BME280;23841;48.524;1.342;2023-12-28T06:55:58;99234.69;;;11.76;65.01
38033;BME280;23841;48.524;1.342;2023-12-28T06:58:24;99239.09;;;11.76;65.18
38033;BME280;23841;48.524;1.342;2023-12-28T07:00:49;99240.06;;;11.75;65.17
38033;BME280;23841;48.524;1.342;2023-12-28T07:03:15;99245.38;;;11.75;65.27
38033;BME280;23841;48.524;1.342;2023-12-28T07:05:40;99247.13;;;11.74;65.27
38033;BME280;23841;48.524;1.342;2023-12-28T07:08:06;99243.63;;;11.74;65.36
38033;BME280;23841;48.524;1.342;2023-12-28T07:10:31;99243.56;;;11.75;65.37
38033;BME280;23841;48.524;1.342;2023-12-28T07:12:57;99247.13;;;11.74;65.35
38033;BME280;23841;48.524;1.342;2023-12-28T07:15:22;99250.69;;;11.75;65.40
38033;BME280;23841;48.524;1.342;2023-12-28T07:17:48;99248.94;;;11.74;65.49
38033;BME280;23841;48.524;1.342;2023-12-28T07:20:13;99241.88;;;11.73;65.42
38033;BME280;23841;48.524;1.342;2023-12-28T07:22:39;99247.19;;;11.73;65.53
38033;BME280;23841;48.524;1.342;2023-12-28T07:25:07;99253.34;;;11.75;65.41
38033;BME280;23841;48.524;1.342;2023-12-28T07:27:36;99261.34;;;11.75;65.38
38033;BME280;23841;48.524;1.342;2023-12-28T07:30:02;99258.72;;;11.73;65.51
38033;BME280;23841;48.524;1.342;2023-12-28T07:32:31;99266.66;;;11.75;65.59
38033;BME280;23841;48.524;1.342;2023-12-28T07:34:56;99267.53;;;11.75;65.52
38033;BME280;23841;48.524;1.342;2023-12-28T07:37:22;99260.44;;;11.74;65.52
38033;BME280;23841;48.524;1.342;2023-12-28T07:39:47;99270.19;;;11.75;65.56
38033;BME280;23841;48.524;1.342;2023-12-28T07:42:13;99260.41;;;11.76;65.60
38033;BME280;23841;48.524;1.342;2023-12-28T07:44:39;99265.72;;;11.76;65.38
38033;BME280;23841;48.524;1.342;2023-12-28T07:47:04;99263.06;;;11.76;65.44
38033;BME280;23841;48.524;1.342;2023-12-28T07:49:31;99272.81;;;11.77;65.42
38033;BME280;23841;48.524;1.342;2023-12-28T07:51:56;99264.81;;;11.77;65.45
38033;BME280;23841;48.524;1.342;2023-12-28T07:54:22;99254.22;;;11.75;65.36
38033;BME280;23841;48.524;1.342;2023-12-28T07:56:47;99263.06;;;11.76;65.41
38033;BME280;23841;48.524;1.342;2023-12-28T07:59:13;99257.75;;;11.76;65.44
38033;BME280;23841;48.524;1.342;2023-12-28T08:01:38;99252.41;;;11.76;65.43
38033;BME280;23841;48.524;1.342;2023-12-28T08:04:04;99253.31;;;11.76;65.43
38033;BME280;23841;48.524;1.342;2023-12-28T08:06:29;99263.97;;;11.76;65.47
38033;BME280;23841;48.524;1.342;2023-12-28T08:09:02;99262.19;;;11.75;65.44
38033;BME280;23841;48.524;1.342;2023-12-28T08:11:28;99256.03;;;11.75;65.50
38033;BME280;23841;48.524;1.342;2023-12-28T08:13:53;99256.03;;;11.75;65.61
38033;BME280;23841;48.524;1.342;2023-12-28T08:16:19;99266.66;;;11.75;65.70
38033;BME280;23841;48.524;1.342;2023-12-28T08:18:44;99264.91;;;11.74;65.67
38033;BME280;23841;48.524;1.342;2023-12-28T08:21:10;99267.53;;;11.75;65.72
38033;BME280;23841;48.524;1.342;2023-12-28T08:23:35;99260.50;;;11.73;65.73
38033;BME280;23841;48.524;1.342;2023-12-28T08:26:01;99266.72;;;11.73;65.91
38033;BME280;23841;48.524;1.342;2023-12-28T08:28:26;99270.22;;;11.74;65.86
38033;BME280;23841;48.524;1.342;2023-12-28T08:30:52;99273.75;;;11.74;65.81
38033;BME280;23841;48.524;1.342;2023-12-28T08:33:17;99287.94;;;11.75;65.83
38033;BME280;23841;48.524;1.342;2023-12-28T08:35:43;99286.19;;;11.74;65.92
38033;BME280;23841;48.524;1.342;2023-12-28T08:38:08;99300.41;;;11.73;66.00
38033;BME280;23841;48.524;1.342;2023-12-28T08:40:34;99305.69;;;11.74;66.00
38033;BME280;23841;48.524;1.342;2023-12-28T08:42:59;99310.09;;;11.75;65.90
38033;BME280;23841;48.524;1.342;2023-12-28T08:45:25;99299.41;;;11.77;65.95
38033;BME280;23841;48.524;1.342;2023-12-28T08:47:50;99305.63;;;11.77;65.96
38033;BME280;23841;48.524;1.342;2023-12-28T08:50:15;99304.75;;;11.77;65.88
38033;BME280;23841;48.524;1.342;2023-12-28T08:52:41;99298.50;;;11.78;65.93
38033;BME280;23841;48.524;1.342;2023-12-28T08:55:06;99306.50;;;11.78;66.04
38033;BME280;23841;48.524;1.342;2023-12-28T08:57:32;99294.09;;;11.77;66.00
38033;BME280;23841;48.524;1.342;2023-12-28T08:59:58;99295.84;;;11.78;65.94
38033;BME280;23841;48.524;1.342;2023-12-28T09:02:27;99287.00;;;11.77;65.99
38033;BME280;23841;48.524;1.342;2023-12-28T09:04:53;99294.94;;;11.79;65.92
38033;BME280;23841;48.524;1.342;2023-12-28T09:07:18;99297.56;;;11.81;65.92
38033;BME280;23841;48.524;1.342;2023-12-28T09:09:45;99294.00;;;11.80;65.97
38033;BME280;23841;48.524;1.342;2023-12-28T09:12:12;99293.09;;;11.81;65.80
38033;BME280;23841;48.524;1.342;2023-12-28T09:14:38;99299.31;;;11.82;65.85
38033;BME280;23841;48.524;1.342;2023-12-28T09:17:04;99290.44;;;11.81;65.88
38033;BME280;23841;48.524;1.342;2023-12-28T09:19:30;99299.31;;;11.82;65.91
38033;BME280;23841;48.524;1.342;2023-12-28T09:21:55;99287.78;;;11.81;65.90
38033;BME280;23841;48.524;1.342;2023-12-28T09:24:20;99291.34;;;11.82;65.95
38033;BME280;23841;48.524;1.342;2023-12-28T09:26:46;99294.00;;;11.82;66.00
38033;BME280;23841;48.524;1.342;2023-12-28T09:29:11;99299.28;;;11.83;65.98
38033;BME280;23841;48.524;1.342;2023-12-28T09:31:39;99293.09;;;11.81;65.90
38033;BME280;23841;48.524;1.342;2023-12-28T09:34:04;99296.59;;;11.83;65.90
38033;BME280;23841;48.524;1.342;2023-12-28T09:36:30;99304.59;;;11.83;66.02
38033;BME280;23841;48.524;1.342;2023-12-28T09:38:56;99301.94;;;11.83;65.97
38033;BME280;23841;48.524;1.342;2023-12-28T09:41:25;99308.97;;;11.84;66.13
38033;BME280;23841;48.524;1.342;2023-12-28T09:44:07;99310.72;;;11.85;66.01
38033;BME280;23841;48.524;1.342;2023-12-28T09:46:33;99315.19;;;11.85;66.12
38033;BME280;23841;48.524;1.342;2023-12-28T09:48:59;99315.19;;;11.85;66.05
38033;BME280;23841;48.524;1.342;2023-12-28T09:51:25;99309.88;;;11.85;66.08
38033;BME280;23841;48.524;1.342;2023-12-28T09:53:51;99314.25;;;11.87;66.06
38033;BME280;23841;48.524;1.342;2023-12-28T09:56:16;99323.09;;;11.88;66.25
38033;BME280;23841;48.524;1.342;2023-12-28T09:58:46;99323.91;;;11.90;66.12
38033;BME280;23841;48.524;1.342;2023-12-28T10:01:14;99326.56;;;11.90;66.29
38033;BME280;23841;48.524;1.342;2023-12-28T10:03:40;99326.56;;;11.90;66.33
38033;BME280;23841;48.524;1.342;2023-12-28T10:06:05;99330.13;;;11.90;66.40
38033;BME280;23841;48.524;1.342;2023-12-28T10:08:30;99327.50;;;11.89;66.40
38033;BME280;23841;48.524;1.342;2023-12-28T10:10:56;99322.09;;;11.92;66.19
38033;BME280;23841;48.524;1.342;2023-12-28T10:13:26;99315.84;;;11.94;66.02
38033;BME280;23841;48.524;1.342;2023-12-28T10:15:51;99315.75;;;11.98;65.95
38033;BME280;23841;48.524;1.342;2023-12-28T10:18:17;99321.94;;;11.98;65.93
38033;BME280;23841;48.524;1.342;2023-12-28T10:20:49;99321.88;;;12.01;65.95
38033;BME280;23841;48.524;1.342;2023-12-28T10:23:15;99315.75;;;11.98;65.83
38033;BME280;23841;48.524;1.342;2023-12-28T10:25:40;99321.88;;;12.01;65.82
38033;BME280;23841;48.524;1.342;2023-12-28T10:28:06;99316.56;;;12.01;65.99
38033;BME280;23841;48.524;1.342;2023-12-28T10:30:31;99310.25;;;12.04;66.09
38033;BME280;23841;48.524;1.342;2023-12-28T10:32:57;99294.28;;;12.04;65.78
38033;BME280;23841;48.524;1.342;2023-12-28T10:35:26;99293.41;;;12.03;65.95
38033;BME280;23841;48.524;1.342;2023-12-28T10:37:53;99308.44;;;12.06;66.00
38033;BME280;23841;48.524;1.342;2023-12-28T10:40:21;99301.34;;;12.05;66.11
38033;BME280;23841;48.524;1.342;2023-12-28T10:43:06;99297.69;;;12.09;66.06
38033;BME280;23841;48.524;1.342;2023-12-28T10:45:33;99297.78;;;12.06;66.20
38033;BME280;23841;48.524;1.342;2023-12-28T10:48:05;99301.28;;;12.08;66.52
38033;BME280;23841;48.524;1.342;2023-12-28T10:50:41;99299.44;;;12.10;66.40
38033;BME280;23841;48.524;1.342;2023-12-28T10:53:29;99295.94;;;12.09;66.38
38033;BME280;23841;48.524;1.342;2023-12-28T10:59:01;99281.72;;;12.09;66.30
38033;BME280;23841;48.524;1.342;2023-12-28T11:01:31;99288.84;;;12.08;66.44
38033;BME280;23841;48.524;1.342;2023-12-28T11:04:17;99296.78;;;12.10;66.34
38033;BME280;23841;48.524;1.342;2023-12-28T11:06:47;99287.94;;;12.09;66.42
38033;BME280;23841;48.524;1.342;2023-12-28T11:09:14;99280.84;;;12.08;66.62
38033;BME280;23841;48.524;1.342;2023-12-28T11:11:46;99271.97;;;12.09;66.55
38033;BME280;23841;48.524;1.342;2023-12-28T11:14:13;99262.22;;;12.08;66.72
38033;BME280;23841;48.524;1.342;2023-12-28T11:16:40;99256.91;;;12.08;66.56
38033;BME280;23841;48.524;1.342;2023-12-28T11:19:07;99256.00;;;12.09;66.55
38033;BME280;23841;48.524;1.342;2023-12-28T11:21:34;99249.78;;;12.09;66.47
38033;BME280;23841;48.524;1.342;2023-12-28T11:24:00;99249.72;;;12.10;66.54
38033;BME280;23841;48.524;1.342;2023-12-28T11:26:26;99238.16;;;12.11;66.53
38033;BME280;23841;48.524;1.342;2023-12-28T11:29:03;99240.78;;;12.13;66.44
38033;BME280;23841;48.524;1.342;2023-12-28T11:31:32;99248.75;;;12.13;66.67
38033;BME280;23841;48.524;1.342;2023-12-28T11:34:01;99247.00;;;12.12;66.66
38033;BME280;23841;48.524;1.342;2023-12-28T11:39:02;99243.44;;;12.13;66.83
38033;BME280;23841;48.524;1.342;2023-12-28T11:41:30;99239.88;;;12.14;66.62
38033;BME280;23841;48.524;1.342;2023-12-28T11:43:56;99237.22;;;12.14;66.76
38033;BME280;23841;48.524;1.342;2023-12-28T11:46:22;99226.56;;;12.14;66.67
38033;BME280;23841;48.524;1.342;2023-12-28T11:48:48;99228.31;;;12.15;66.84
38033;BME280;23841;48.524;1.342;2023-12-28T11:51:13;99226.50;;;12.16;66.89
38033;BME280;23841;48.524;1.342;2023-12-28T11:53:41;99221.19;;;12.16;66.83
38033;BME280;23841;48.524;1.342;2023-12-28T11:56:06;99213.19;;;12.16;66.81
38033;BME280;23841;48.524;1.342;2023-12-28T11:58:35;99220.28;;;12.17;66.85
38033;BME280;23841;48.524;1.342;2023-12-28T12:01:02;99213.16;;;12.17;67.16
38033;BME280;23841;48.524;1.342;2023-12-28T12:03:27;99204.28;;;12.17;67.02
38033;BME280;23841;48.524;1.342;2023-12-28T12:05:55;99204.25;;;12.18;67.04
38033;BME280;23841;48.524;1.342;2023-12-28T12:08:22;99201.59;;;12.18;66.87
38033;BME280;23841;48.524;1.342;2023-12-28T12:10:47;99194.44;;;12.19;67.00
38033;BME280;23841;48.524;1.342;2023-12-28T12:13:14;99196.22;;;12.20;67.21
38033;BME280;23841;48.524;1.342;2023-12-28T12:15:39;99197.97;;;12.21;67.44
38033;BME280;23841;48.524;1.342;2023-12-28T12:18:06;99182.84;;;12.21;67.20
38033;BME280;23841;48.524;1.342;2023-12-28T12:20:32;99185.50;;;12.21;67.00
38033;BME280;23841;48.524;1.342;2023-12-28T12:22:59;99188.16;;;12.21;67.10
38033;BME280;23841;48.524;1.342;2023-12-28T12:25:26;99189.00;;;12.23;67.02
38033;BME280;23841;48.524;1.342;2023-12-28T12:27:52;99189.00;;;12.23;66.89
38033;BME280;23841;48.524;1.342;2023-12-28T12:30:19;99185.41;;;12.24;66.88
38033;BME280;23841;48.524;1.342;2023-12-28T12:32:48;99187.16;;;12.25;67.12
38033;BME280;23841;48.524;1.342;2023-12-28T12:35:14;99189.78;;;12.27;67.15
38033;BME280;23841;48.524;1.342;2023-12-28T12:37:40;99194.19;;;12.28;67.17
38033;BME280;23841;48.524;1.342;2023-12-28T12:40:06;99187.97;;;12.27;67.08
38033;BME280;23841;48.524;1.342;2023-12-28T12:42:36;99186.19;;;12.28;67.05
38033;BME280;23841;48.524;1.342;2023-12-28T12:45:02;99178.25;;;12.26;67.08
38033;BME280;23841;48.524;1.342;2023-12-28T12:47:32;99175.53;;;12.28;66.98
38033;BME280;23841;48.524;1.342;2023-12-28T12:50:00;99176.34;;;12.30;67.05
38033;BME280;23841;48.524;1.342;2023-12-28T12:52:29;99172.81;;;12.29;66.96
38033;BME280;23841;48.524;1.342;2023-12-28T12:54:56;99179.00;;;12.30;67.02
38033;BME280;23841;48.524;1.342;2023-12-28T12:57:24;99166.59;;;12.31;67.01
38033;BME280;23841;48.524;1.342;2023-12-28T12:59:51;99173.63;;;12.33;66.97
38033;BME280;23841;48.524;1.342;2023-12-28T13:02:17;99166.50;;;12.34;66.97
38033;BME280;23841;48.524;1.342;2023-12-28T13:04:43;99171.81;;;12.34;67.16
38033;BME280;23841;48.524;1.342;2023-12-28T13:07:09;99173.63;;;12.33;67.01